1994 LITANNE (1994064S13099)


On this page: IBTrACS data - Map and Plots - Positions - Intensities - Original source data

Summary

Start Mar 5
End Mar 19
Basin SI
LMI 130 kt
Sources jtwc_sh
reunion
neumann
In WMO? Yes
Previous storm 1994 THEODORE (SP)
Previous in basin 1994 JULITA (SI)
Concurrent storms 1994 LITANNE (SI)
1994 KELVINA (SI)
1994 MARIOLA (SI)
1994 SHARON (SI)
1994 NADIA (SI)
1994 MISSING (NI)
1994 THOMAS (SP)
Next in basin 1994 KELVINA (SI)
Next storm 1994 KELVINA (SI)

top of page IBTrACS Data: File Access

top of page HURSAT Data: File Access

Image of storm

top of page Plots:

Map of storm track will not appear if FTP is down
Time series of cyclone Maximum Sustained Wind will not appear if FTP is down
Time series of cyclone Minimum Central Pressure will not appear if FTP is down

top of page Track Data:Position

jtwc_sh reunion neumann
Date Lat Lon Lat Lon Lat Lon
1994-03-05 00:00:00 -12.8 98.6 -12.8 98.6
1994-03-05 06:00:00 -12.8 98.3 -12.8 98.3
1994-03-05 12:00:00 -12.8 97.9 -12.8 97.9
1994-03-05 18:00:00 -12.8 97.6 -12.8 97.6
1994-03-06 00:00:00 -12.8 97.2 -12.8 97.2
1994-03-06 06:00:00 -12.9 96.5 -12.9 96.5
1994-03-06 12:00:00 -13.0 95.5 -13.0 95.5
1994-03-06 18:00:00 -13.0 94.4 -13.0 94.4
1994-03-07 00:00:00 -13.1 93.2 -13.1 93.2
1994-03-07 06:00:00 -13.3 92.0 -13.3 92.0
1994-03-07 12:00:00 -13.6 90.9 -12.9 90.1 -13.6 90.9
1994-03-07 18:00:00 -14.0 89.6 -13.4 88.9 -14.0 89.6
1994-03-08 00:00:00 -14.3 88.2 -13.8 87.8 -14.3 88.2
1994-03-08 06:00:00 -14.4 86.8 -14.2 86.8 -14.4 86.8
1994-03-08 12:00:00 -14.5 85.4 -14.5 85.7 -14.5 85.4
1994-03-08 18:00:00 -14.6 84.1 -14.7 84.7 -14.6 84.1
1994-03-09 00:00:00 -14.7 82.8 -14.9 83.3 -14.7 82.8
1994-03-09 06:00:00 -15.0 81.6 -15.0 82.3 -15.0 81.6
1994-03-09 12:00:00 -15.1 80.4 -15.1 81.1 -15.1 80.4
1994-03-09 18:00:00 -15.2 79.2 -15.2 79.5 -15.2 79.2
1994-03-10 00:00:00 -15.2 77.7 -15.2 77.9 -15.2 77.7
1994-03-10 06:00:00 -15.2 75.9 -15.2 76.3 -15.2 75.9
1994-03-10 12:00:00 -15.1 74.3 -15.2 74.8 -15.1 74.3
1994-03-10 18:00:00 -14.9 72.7 -15.0 73.1 -14.9 72.7
1994-03-11 00:00:00 -14.8 71.2 -14.8 71.4 -14.8 71.2
jtwc_sh reunion neumann
1994-03-11 06:00:00 -14.7 69.8 -14.8 69.9 -14.7 69.8
1994-03-11 12:00:00 -14.7 68.2 -14.8 68.2 -14.7 68.2
1994-03-11 18:00:00 -14.7 66.7 -14.9 66.5 -14.7 66.7
1994-03-12 00:00:00 -14.9 65.1 -15.1 64.9 -14.9 65.1
1994-03-12 06:00:00 -15.3 63.5 -15.5 63.5 -15.3 63.5
1994-03-12 12:00:00 -15.6 62.1 -16.0 62.1 -15.6 62.1
1994-03-12 18:00:00 -16.2 60.6 -16.3 60.5 -16.2 60.6
1994-03-13 00:00:00 -16.7 59.3 -16.6 59.0 -16.7 59.3
1994-03-13 06:00:00 -17.2 58.0 -17.1 58.0 -17.2 58.0
1994-03-13 12:00:00 -17.6 57.1 -17.7 57.2 -17.6 57.1
1994-03-13 18:00:00 -17.9 56.2 -18.0 56.2 -17.9 56.2
1994-03-14 00:00:00 -18.2 55.2 -18.1 55.3 -18.2 55.2
1994-03-14 06:00:00 -18.4 54.2 -18.2 54.3 -18.4 54.2
1994-03-14 12:00:00 -18.5 53.2 -18.4 53.2 -18.5 53.2
1994-03-14 18:00:00 -18.5 52.3 -18.4 52.4 -18.5 52.3
1994-03-15 00:00:00 -18.5 51.5 -18.5 51.6 -18.5 51.5
1994-03-15 06:00:00 -18.5 50.7 -18.6 50.7 -18.5 50.7
1994-03-15 12:00:00 -18.5 49.9 -18.7 49.8 -18.5 49.9
1994-03-15 18:00:00 -18.4 49.2 -18.7 49.1 -18.4 49.2
1994-03-16 00:00:00 -18.6 48.8 -18.9 48.6 -18.6 48.8
1994-03-16 06:00:00 -19.1 48.4 -19.1 48.3 -19.1 48.4
1994-03-16 12:00:00 -19.8 48.1 -19.5 48.3 -19.8 48.1
1994-03-16 18:00:00 -20.4 48.0 -20.2 48.2 -20.4 48.0
1994-03-17 00:00:00 -21.1 48.0 -21.2 48.1 -21.1 48.0
jtwc_sh reunion neumann
1994-03-17 06:00:00 -22.0 47.9 -22.2 48.1 -22.0 47.9
1994-03-17 12:00:00 -23.2 48.2 -23.7 48.2 -23.2 48.2
1994-03-17 18:00:00 -24.6 48.8 -25.2 49.0 -24.6 48.8
1994-03-18 00:00:00 -27.0 50.2
1994-03-18 06:00:00 -28.6 51.5
1994-03-18 12:00:00 -30.1 52.8
1994-03-18 18:00:00 -31.7 54.4
1994-03-19 00:00:00 -33.2 56.5
1994-03-19 06:00:00 -34.5 58.8
1994-03-19 12:00:00 -35.7 61.0

top of pageTrack Data:Intensity

jtwc_sh reunion neumann
Date Wind Pres Wind Pres Wind Pres
1994-03-05 00:00:00 25. 25.
1994-03-05 06:00:00 25. 25.
1994-03-05 12:00:00 25. 25.
1994-03-05 18:00:00 25. 25.
1994-03-06 00:00:00 25. 25.
1994-03-06 06:00:00 25. 25.
1994-03-06 12:00:00 25. 25.
1994-03-06 18:00:00 25. 25.
1994-03-07 00:00:00 25. 25.
1994-03-07 06:00:00 25. 25.
1994-03-07 12:00:00 30. 28. 998. 30.
1994-03-07 18:00:00 35. 28. 998. 35.
1994-03-08 00:00:00 40. 30. 995. 40.
1994-03-08 06:00:00 45. 35. 992. 45.
1994-03-08 12:00:00 50. 40. 988. 50.
1994-03-08 18:00:00 55. 45. 984. 55.
1994-03-09 00:00:00 65. 50. 978. 65.
1994-03-09 06:00:00 75. 60. 970. 75.
1994-03-09 12:00:00 85. 65. 960. 85.
1994-03-09 18:00:00 95. 70. 955. 95.
1994-03-10 00:00:00 105. 70. 955. 105.
1994-03-10 06:00:00 110. 75. 950. 110.
1994-03-10 12:00:00 110. 80. 945. 110.
1994-03-10 18:00:00 115. 85. 940. 115.
1994-03-11 00:00:00 120. 95. 925. 125. 925.
jtwc_sh reunion neumann
1994-03-11 06:00:00 125. 95. 925. 125.
1994-03-11 12:00:00 125. 90. 930. 125.
1994-03-11 18:00:00 120. 90. 930. 120.
1994-03-12 00:00:00 115. 85. 940. 115.
1994-03-12 06:00:00 115. 85. 940. 115.
1994-03-12 12:00:00 120. 85. 940. 120.
1994-03-12 18:00:00 125. 85. 940. 125.
1994-03-13 00:00:00 120. 85. 940. 120.
1994-03-13 06:00:00 120. 85. 940. 120.
1994-03-13 12:00:00 120. 90. 930. 120.
1994-03-13 18:00:00 130. 95. 925. 130.
1994-03-14 00:00:00 130. 100. 915. 130.
1994-03-14 06:00:00 130. 100. 915. 130.
1994-03-14 12:00:00 125. 105. 910. 125.
1994-03-14 18:00:00 120. 105. 910. 120.
1994-03-15 00:00:00 120. 105. 910. 120.
1994-03-15 06:00:00 120. 100. 915. 120.
1994-03-15 12:00:00 115. 90. 930. 115.
1994-03-15 18:00:00 110. 105.
1994-03-16 00:00:00 85. 50.
1994-03-16 06:00:00 70. 40.
1994-03-16 12:00:00 55. 35.
1994-03-16 18:00:00 45. 30.
1994-03-17 00:00:00 35. 30.
jtwc_sh reunion neumann
1994-03-17 06:00:00 35. 25.
1994-03-17 12:00:00 30. 30. 997. 30.
1994-03-17 18:00:00 25. 30. 997. 25.
1994-03-18 00:00:00 28. 998.
1994-03-18 06:00:00 28. 998.
1994-03-18 12:00:00 25. 1000.
1994-03-18 18:00:00
1994-03-19 00:00:00
1994-03-19 06:00:00
1994-03-19 12:00:00

top of page Links to source data

Source Source file Format
jtwc_sh bsh201994.txt ATCF
reunion WMO-Best-Tracks.txt:Line=16522:litanne WMO (old format)
neumann tracks.sh:Storm=1003:LITANNE:BSH201994:JTWC HURDAT